Terminal Aerodrome Forecast
Issued by NWS

Home | Current Version | Previous Version | Graphics & Text | Print | Product List | Glossary On
Versions: 1 2 3 4 5 6 7 8 9 10 11 12 13 14 15 16 17 18 19 20
000
FTUS43 KFGF 242325
TAFBJI
TAF
KBJI 242325Z 2500/2524 14015KT P6SM OVC009
     FM250100 13014KT P6SM VCTS OVC009CB
     FM250200 14013KT P6SM -RA OVC008
     FM250500 15011KT P6SM VCSH OVC008
     FM251200 18009KT P6SM BKN035
     FM251900 25014G20KT P6SM OVC015
     FM252000 28018G25KT P6SM VCSH OVC015=

USA.gov is the U.S. government's official web portal to all federal, state and local government web resources and services.